sensor_id;sensor_type;location;lat;lon;timestamp;pressure;altitude;pressure_sealevel;temperature;humidity
76605;BME280;73179;50.978;16.998;2023-11-19T00:01:42;100688.47;;;1.24;92.17
76605;BME280;73179;50.978;16.998;2023-11-19T00:04:08;100618.09;;;0.74;92.09
76605;BME280;73179;50.978;16.998;2023-11-19T00:06:34;100691.72;;;1.32;92.16
76605;BME280;73179;50.978;16.998;2023-11-19T00:09:00;100668.38;;;1.21;92.30
76605;BME280;73179;50.978;16.998;2023-11-19T00:11:26;100633.75;;;1.08;91.90
76605;BME280;73179;50.978;16.998;2023-11-19T00:13:52;100645.44;;;1.14;92.16
76605;BME280;73179;50.978;16.998;2023-11-19T00:16:19;100621.31;;;0.95;92.28
76605;BME280;73179;50.978;16.998;2023-11-19T00:18:45;100639.53;;;1.12;92.72
76605;BME280;73179;50.978;16.998;2023-11-19T00:21:11;100608.59;;;0.98;92.20
76605;BME280;73179;50.978;16.998;2023-11-19T00:23:37;100594.66;;;0.89;92.91
76605;BME280;73179;50.978;16.998;2023-11-19T00:26:04;100635.41;;;1.09;92.58
76605;BME280;73179;50.978;16.998;2023-11-19T00:28:32;100642.97;;;1.12;92.82
76605;BME280;73179;50.978;16.998;2023-11-19T00:30:59;100633.78;;;1.02;92.91
76605;BME280;73179;50.978;16.998;2023-11-19T00:33:25;100618.22;;;0.99;92.51
76605;BME280;73179;50.978;16.998;2023-11-19T00:35:51;100628.66;;;1.07;92.80
76605;BME280;73179;50.978;16.998;2023-11-19T00:38:17;100574.66;;;0.73;92.53
76605;BME280;73179;50.978;16.998;2023-11-19T00:40:43;100603.28;;;0.91;92.47
76605;BME280;73179;50.978;16.998;2023-11-19T00:43:09;100640.16;;;1.07;93.09
76605;BME280;73179;50.978;16.998;2023-11-19T00:45:35;100613.31;;;0.95;92.52
76605;BME280;73179;50.978;16.998;2023-11-19T00:48:01;100561.75;;;0.70;92.30
76605;BME280;73179;50.978;16.998;2023-11-19T00:50:28;100528.78;;;0.65;92.21
76605;BME280;73179;50.978;16.998;2023-11-19T00:52:55;100579.66;;;1.01;91.89
76605;BME280;73179;50.978;16.998;2023-11-19T00:55:21;100594.22;;;1.05;92.24
76605;BME280;73179;50.978;16.998;2023-11-19T00:57:47;100553.72;;;0.83;92.34
76605;BME280;73179;50.978;16.998;2023-11-19T01:00:13;100554.97;;;0.81;92.11
76605;BME280;73179;50.978;16.998;2023-11-19T01:02:50;100566.56;;;0.93;91.66
76605;BME280;73179;50.978;16.998;2023-11-19T01:05:16;100560.41;;;0.99;92.21
76605;BME280;73179;50.978;16.998;2023-11-19T01:07:46;100543.66;;;0.92;91.64
76605;BME280;73179;50.978;16.998;2023-11-19T01:10:13;100529.53;;;0.85;91.73
76605;BME280;73179;50.978;16.998;2023-11-19T01:12:39;100498.19;;;0.74;92.26
76605;BME280;73179;50.978;16.998;2023-11-19T01:15:05;100501.09;;;0.72;92.13
76605;BME280;73179;50.978;16.998;2023-11-19T01:17:31;100508.84;;;0.80;91.65
76605;BME280;73179;50.978;16.998;2023-11-19T01:19:57;100513.72;;;0.90;92.48
76605;BME280;73179;50.978;16.998;2023-11-19T01:22:23;100506.16;;;0.87;92.06
76605;BME280;73179;50.978;16.998;2023-11-19T01:24:49;100438.91;;;0.47;91.91
76605;BME280;73179;50.978;16.998;2023-11-19T01:27:15;100406.22;;;0.33;91.76
76605;BME280;73179;50.978;16.998;2023-11-19T01:29:41;100439.28;;;0.51;92.05
76605;BME280;73179;50.978;16.998;2023-11-19T01:32:08;100455.81;;;0.66;91.76
76605;BME280;73179;50.978;16.998;2023-11-19T01:34:35;100480.56;;;0.79;92.05
76605;BME280;73179;50.978;16.998;2023-11-19T01:37:01;100416.81;;;0.40;92.04
76605;BME280;73179;50.978;16.998;2023-11-19T01:39:28;100427.63;;;0.52;91.99
76605;BME280;73179;50.978;16.998;2023-11-19T01:41:53;100457.47;;;0.67;91.43
76605;BME280;73179;50.978;16.998;2023-11-19T01:44:20;100439.09;;;0.52;91.70
76605;BME280;73179;50.978;16.998;2023-11-19T01:46:46;100445.44;;;0.58;92.16
76605;BME280;73179;50.978;16.998;2023-11-19T01:49:14;100468.50;;;0.70;91.60
76605;BME280;73179;50.978;16.998;2023-11-19T01:51:41;100447.69;;;0.54;91.37
76605;BME280;73179;50.978;16.998;2023-11-19T01:54:08;100446.84;;;0.60;91.91
76605;BME280;73179;50.978;16.998;2023-11-19T01:56:35;100460.50;;;0.70;91.71
76605;BME280;73179;50.978;16.998;2023-11-19T01:59:03;100416.78;;;0.53;91.35
76605;BME280;73179;50.978;16.998;2023-11-19T02:01:29;100406.31;;;0.52;91.29
76605;BME280;73179;50.978;16.998;2023-11-19T02:03:55;100419.19;;;0.61;91.90
76605;BME280;73179;50.978;16.998;2023-11-19T02:06:24;100404.47;;;0.52;91.51
76605;BME280;73179;50.978;16.998;2023-11-19T02:08:51;100406.72;;;0.55;91.71
76605;BME280;73179;50.978;16.998;2023-11-19T02:11:17;100418.38;;;0.61;91.66
76605;BME280;73179;50.978;16.998;2023-11-19T02:13:43;100422.84;;;0.67;91.53
76605;BME280;73179;50.978;16.998;2023-11-19T02:16:10;100424.69;;;0.66;91.48
76605;BME280;73179;50.978;16.998;2023-11-19T02:18:36;100394.41;;;0.61;91.46
76605;BME280;73179;50.978;16.998;2023-11-19T02:21:02;100391.94;;;0.59;91.58
76605;BME280;73179;50.978;16.998;2023-11-19T02:23:30;100382.97;;;0.54;91.76
76605;BME280;73179;50.978;16.998;2023-11-19T02:28:28;100418.91;;;0.76;91.69
76605;BME280;73179;50.978;16.998;2023-11-19T02:30:53;100398.84;;;0.67;91.18
76605;BME280;73179;50.978;16.998;2023-11-19T02:33:20;100390.66;;;0.68;91.03
76605;BME280;73179;50.978;16.998;2023-11-19T02:35:45;100357.13;;;0.54;91.17
76605;BME280;73179;50.978;16.998;2023-11-19T02:38:12;100384.91;;;0.71;91.24
76605;BME280;73179;50.978;16.998;2023-11-19T02:40:39;100366.31;;;0.58;91.36
76605;BME280;73179;50.978;16.998;2023-11-19T02:43:06;100362.06;;;0.51;90.86
76605;BME280;73179;50.978;16.998;2023-11-19T02:45:31;100364.50;;;0.59;91.74
76605;BME280;73179;50.978;16.998;2023-11-19T02:47:57;100330.22;;;0.37;91.19
76605;BME280;73179;50.978;16.998;2023-11-19T02:50:25;100393.91;;;0.70;91.43
76605;BME280;73179;50.978;16.998;2023-11-19T02:52:53;100391.09;;;0.65;91.19
76605;BME280;73179;50.978;16.998;2023-11-19T02:55:19;100384.31;;;0.69;91.01
76605;BME280;73179;50.978;16.998;2023-11-19T02:57:46;100363.47;;;0.60;91.57
76605;BME280;73179;50.978;16.998;2023-11-19T03:00:18;100372.84;;;0.69;91.32
76605;BME280;73179;50.978;16.998;2023-11-19T03:02:44;100363.47;;;0.60;91.87
76605;BME280;73179;50.978;16.998;2023-11-19T03:05:19;100361.81;;;0.59;91.35
76605;BME280;73179;50.978;16.998;2023-11-19T03:07:45;100346.41;;;0.67;91.99
76605;BME280;73179;50.978;16.998;2023-11-19T03:10:12;100316.16;;;0.55;91.39
76605;BME280;73179;50.978;16.998;2023-11-19T03:12:42;100315.56;;;0.53;91.54
76605;BME280;73179;50.978;16.998;2023-11-19T03:15:08;100315.53;;;0.60;91.04
76605;BME280;73179;50.978;16.998;2023-11-19T03:17:43;100316.53;;;0.65;90.81
76605;BME280;73179;50.978;16.998;2023-11-19T03:20:11;100281.81;;;0.47;91.72
76605;BME280;73179;50.978;16.998;2023-11-19T03:22:43;100300.16;;;0.62;91.08
76605;BME280;73179;50.978;16.998;2023-11-19T03:25:12;100283.81;;;0.52;91.25
76605;BME280;73179;50.978;16.998;2023-11-19T03:27:39;100316.03;;;0.75;91.33
76605;BME280;73179;50.978;16.998;2023-11-19T03:30:10;100290.28;;;0.62;91.58
76605;BME280;73179;50.978;16.998;2023-11-19T03:32:37;100307.44;;;0.73;90.49
76605;BME280;73179;50.978;16.998;2023-11-19T03:35:05;100282.91;;;0.64;91.02
76605;BME280;73179;50.978;16.998;2023-11-19T03:37:33;100285.34;;;0.66;90.30
76605;BME280;73179;50.978;16.998;2023-11-19T03:39:59;100293.50;;;0.71;90.24
76605;BME280;73179;50.978;16.998;2023-11-19T03:42:26;100297.94;;;0.83;90.12
76605;BME280;73179;50.978;16.998;2023-11-19T03:44:53;100284.81;;;0.82;90.03
76605;BME280;73179;50.978;16.998;2023-11-19T03:47:20;100269.47;;;0.77;89.62
76605;BME280;73179;50.978;16.998;2023-11-19T03:49:49;100279.28;;;0.83;90.12
76605;BME280;73179;50.978;16.998;2023-11-19T03:52:16;100244.97;;;0.69;90.16
76605;BME280;73179;50.978;16.998;2023-11-19T03:54:43;100265.13;;;0.83;90.61
76605;BME280;73179;50.978;16.998;2023-11-19T03:57:09;100231.59;;;0.75;90.00
76605;BME280;73179;50.978;16.998;2023-11-19T03:59:39;100202.78;;;0.66;89.81
76605;BME280;73179;50.978;16.998;2023-11-19T04:02:05;100209.34;;;0.88;89.93
76605;BME280;73179;50.978;16.998;2023-11-19T04:04:32;100173.47;;;0.66;89.80
76605;BME280;73179;50.978;16.998;2023-11-19T04:06:58;100220.59;;;0.90;89.40
76605;BME280;73179;50.978;16.998;2023-11-19T04:09:26;100181.19;;;0.74;89.85
76605;BME280;73179;50.978;16.998;2023-11-19T04:11:52;100220.75;;;0.95;88.92
76605;BME280;73179;50.978;16.998;2023-11-19T04:14:18;100189.72;;;0.82;89.68
76605;BME280;73179;50.978;16.998;2023-11-19T04:16:45;100209.22;;;1.01;88.29
76605;BME280;73179;50.978;16.998;2023-11-19T04:19:11;100163.31;;;0.81;89.04
76605;BME280;73179;50.978;16.998;2023-11-19T04:21:40;100184.41;;;1.01;88.54
76605;BME280;73179;50.978;16.998;2023-11-19T04:24:07;100157.91;;;0.87;88.67
76605;BME280;73179;50.978;16.998;2023-11-19T04:26:33;100137.09;;;0.78;88.77
76605;BME280;73179;50.978;16.998;2023-11-19T04:28:59;100133.94;;;0.87;88.64
76605;BME280;73179;50.978;16.998;2023-11-19T04:31:29;100107.44;;;0.74;89.18
76605;BME280;73179;50.978;16.998;2023-11-19T04:33:57;100106.84;;;0.72;89.47
76605;BME280;73179;50.978;16.998;2023-11-19T04:36:23;100099.81;;;0.78;88.90
76605;BME280;73179;50.978;16.998;2023-11-19T04:38:50;100047.84;;;0.51;88.91
76605;BME280;73179;50.978;16.998;2023-11-19T04:41:16;100088.84;;;0.86;89.09
76605;BME280;73179;50.978;16.998;2023-11-19T04:43:42;100096.41;;;0.89;89.66
76605;BME280;73179;50.978;16.998;2023-11-19T04:46:09;100103.16;;;0.91;88.56
76605;BME280;73179;50.978;16.998;2023-11-19T04:48:35;100076.88;;;0.77;88.33
76605;BME280;73179;50.978;16.998;2023-11-19T04:51:04;100106.91;;;1.02;88.79
76605;BME280;73179;50.978;16.998;2023-11-19T04:53:31;100058.50;;;0.87;87.89
76605;BME280;73179;50.978;16.998;2023-11-19T04:55:57;100117.63;;;1.14;87.75
76605;BME280;73179;50.978;16.998;2023-11-19T04:58:23;100091.22;;;0.94;87.46
76605;BME280;73179;50.978;16.998;2023-11-19T05:00:49;100100.31;;;1.05;88.16
76605;BME280;73179;50.978;16.998;2023-11-19T05:03:15;100093.59;;;1.02;87.93
76605;BME280;73179;50.978;16.998;2023-11-19T05:05:41;100058.06;;;0.90;88.14
76605;BME280;73179;50.978;16.998;2023-11-19T05:08:07;100069.81;;;1.01;87.35
76605;BME280;73179;50.978;16.998;2023-11-19T05:10:33;100075.81;;;1.14;86.88
76605;BME280;73179;50.978;16.998;2023-11-19T05:12:59;100019.47;;;0.81;87.12
76605;BME280;73179;50.978;16.998;2023-11-19T05:15:25;100019.00;;;0.84;86.71
76605;BME280;73179;50.978;16.998;2023-11-19T05:17:51;100006.13;;;0.81;86.56
76605;BME280;73179;50.978;16.998;2023-11-19T05:20:17;100061.19;;;1.17;87.17
76605;BME280;73179;50.978;16.998;2023-11-19T05:22:44;100018.50;;;1.05;86.21
76605;BME280;73179;50.978;16.998;2023-11-19T05:25:11;100045.53;;;1.38;85.27
76605;BME280;73179;50.978;16.998;2023-11-19T05:27:38;100061.97;;;1.35;86.83
76605;BME280;73179;50.978;16.998;2023-11-19T05:30:05;100031.34;;;1.26;86.25
76605;BME280;73179;50.978;16.998;2023-11-19T05:32:33;100016.25;;;1.20;86.52
76605;BME280;73179;50.978;16.998;2023-11-19T05:34:59;99992.34;;;1.14;85.71
76605;BME280;73179;50.978;16.998;2023-11-19T05:37:25;99984.81;;;1.11;86.22
76605;BME280;73179;50.978;16.998;2023-11-19T05:39:51;100013.75;;;1.37;85.85
76605;BME280;73179;50.978;16.998;2023-11-19T05:42:19;100027.13;;;1.49;84.75
76605;BME280;73179;50.978;16.998;2023-11-19T05:44:45;99972.31;;;1.11;85.61
76605;BME280;73179;50.978;16.998;2023-11-19T05:47:11;100017.25;;;1.37;85.16
76605;BME280;73179;50.978;16.998;2023-11-19T05:49:38;100033.06;;;1.51;85.40
76605;BME280;73179;50.978;16.998;2023-11-19T05:52:04;99937.69;;;0.93;85.59
76605;BME280;73179;50.978;16.998;2023-11-19T05:54:33;100010.88;;;1.38;85.34
76605;BME280;73179;50.978;16.998;2023-11-19T05:57:06;100019.59;;;1.46;86.01
76605;BME280;73179;50.978;16.998;2023-11-19T05:59:35;99997.16;;;1.23;86.52
76605;BME280;73179;50.978;16.998;2023-11-19T06:02:02;99975.91;;;1.17;86.05
76605;BME280;73179;50.978;16.998;2023-11-19T06:04:29;99995.56;;;1.34;86.46
76605;BME280;73179;50.978;16.998;2023-11-19T06:06:55;100012.03;;;1.42;86.42
76605;BME280;73179;50.978;16.998;2023-11-19T06:09:21;99944.34;;;1.02;86.82
76605;BME280;73179;50.978;16.998;2023-11-19T06:11:50;100004.81;;;1.43;86.49
76605;BME280;73179;50.978;16.998;2023-11-19T06:14:17;99997.06;;;1.41;87.02
76605;BME280;73179;50.978;16.998;2023-11-19T06:16:43;99962.03;;;1.26;86.36
76605;BME280;73179;50.978;16.998;2023-11-19T06:19:09;99979.31;;;1.35;86.59
76605;BME280;73179;50.978;16.998;2023-11-19T06:21:37;99974.91;;;1.29;86.26
76605;BME280;73179;50.978;16.998;2023-11-19T06:24:03;99971.78;;;1.32;86.59
76605;BME280;73179;50.978;16.998;2023-11-19T06:26:29;99928.16;;;1.15;86.52
76605;BME280;73179;50.978;16.998;2023-11-19T06:28:55;99956.13;;;1.36;87.08
76605;BME280;73179;50.978;16.998;2023-11-19T06:31:21;99954.41;;;1.41;86.64
76605;BME280;73179;50.978;16.998;2023-11-19T06:33:47;99953.94;;;1.44;86.46
76605;BME280;73179;50.978;16.998;2023-11-19T06:36:16;99940.75;;;1.50;85.78
76605;BME280;73179;50.978;16.998;2023-11-19T06:38:43;99920.09;;;1.45;85.86
76605;BME280;73179;50.978;16.998;2023-11-19T06:41:09;99945.84;;;1.63;86.48
76605;BME280;73179;50.978;16.998;2023-11-19T06:43:36;99922.56;;;1.58;86.39
76605;BME280;73179;50.978;16.998;2023-11-19T06:46:02;99924.97;;;1.60;85.59
76605;BME280;73179;50.978;16.998;2023-11-19T06:48:32;99920.78;;;1.64;85.77
76605;BME280;73179;50.978;16.998;2023-11-19T06:50:59;99931.34;;;1.82;85.65
76605;BME280;73179;50.978;16.998;2023-11-19T06:53:25;99871.03;;;1.69;85.74
76605;BME280;73179;50.978;16.998;2023-11-19T06:55:54;99912.28;;;2.02;86.05
76605;BME280;73179;50.978;16.998;2023-11-19T06:58:20;99912.94;;;2.20;85.05
76605;BME280;73179;50.978;16.998;2023-11-19T07:00:46;99908.31;;;2.27;85.43
76605;BME280;73179;50.978;16.998;2023-11-19T07:03:13;99895.03;;;2.32;84.87
76605;BME280;73179;50.978;16.998;2023-11-19T07:05:39;99895.25;;;2.43;84.19
76605;BME280;73179;50.978;16.998;2023-11-19T07:08:08;99877.31;;;2.26;84.47
76605;BME280;73179;50.978;16.998;2023-11-19T07:10:34;99883.00;;;2.30;84.55
76605;BME280;73179;50.978;16.998;2023-11-19T07:13:00;99892.00;;;2.40;84.75
76605;BME280;73179;50.978;16.998;2023-11-19T07:15:26;99854.31;;;2.25;84.51
76605;BME280;73179;50.978;16.998;2023-11-19T07:17:52;99893.25;;;2.50;83.38
76605;BME280;73179;50.978;16.998;2023-11-19T07:20:20;99887.44;;;2.53;84.35
76605;BME280;73179;50.978;16.998;2023-11-19T07:22:46;99849.75;;;2.37;82.90
76605;BME280;73179;50.978;16.998;2023-11-19T07:25:15;99889.63;;;2.56;83.39
76605;BME280;73179;50.978;16.998;2023-11-19T07:27:41;99880.72;;;2.50;83.32
76605;BME280;73179;50.978;16.998;2023-11-19T07:30:08;99874.13;;;2.41;83.94
76605;BME280;73179;50.978;16.998;2023-11-19T07:32:34;99882.31;;;2.51;84.04
76605;BME280;73179;50.978;16.998;2023-11-19T07:35:00;99889.53;;;2.51;83.33
76605;BME280;73179;50.978;16.998;2023-11-19T07:37:26;99880.28;;;2.42;83.73
76605;BME280;73179;50.978;16.998;2023-11-19T07:39:52;99875.97;;;2.40;82.54
76605;BME280;73179;50.978;16.998;2023-11-19T07:42:18;99857.59;;;2.27;84.11
76605;BME280;73179;50.978;16.998;2023-11-19T07:44:44;99827.19;;;2.17;83.66
76605;BME280;73179;50.978;16.998;2023-11-19T07:47:11;99801.81;;;2.03;83.20
76605;BME280;73179;50.978;16.998;2023-11-19T07:49:38;99857.22;;;2.35;84.96
76605;BME280;73179;50.978;16.998;2023-11-19T07:52:05;99865.44;;;2.34;84.93
76605;BME280;73179;50.978;16.998;2023-11-19T07:54:30;99848.16;;;2.25;84.14
76605;BME280;73179;50.978;16.998;2023-11-19T07:56:57;99831.38;;;2.13;84.57
76605;BME280;73179;50.978;16.998;2023-11-19T07:59:22;99815.28;;;2.08;85.71
76605;BME280;73179;50.978;16.998;2023-11-19T08:01:49;99818.41;;;2.05;84.90
76605;BME280;73179;50.978;16.998;2023-11-19T08:04:14;99830.47;;;2.07;84.64
76605;BME280;73179;50.978;16.998;2023-11-19T08:06:41;99815.75;;;2.05;85.60
76605;BME280;73179;50.978;16.998;2023-11-19T08:09:07;99808.31;;;2.07;85.42
76605;BME280;73179;50.978;16.998;2023-11-19T08:11:43;99808.97;;;2.14;85.83
76605;BME280;73179;50.978;16.998;2023-11-19T08:14:09;99824.94;;;2.25;85.10
76605;BME280;73179;50.978;16.998;2023-11-19T08:16:35;99814.56;;;2.12;86.07
76605;BME280;73179;50.978;16.998;2023-11-19T08:19:03;99665.78;;;1.23;85.26
76605;BME280;73179;50.978;16.998;2023-11-19T08:21:29;99817.91;;;2.19;85.52
76605;BME280;73179;50.978;16.998;2023-11-19T08:23:55;99815.22;;;2.19;86.58
76605;BME280;73179;50.978;16.998;2023-11-19T08:26:21;99764.97;;;1.88;86.03
76605;BME280;73179;50.978;16.998;2023-11-19T08:28:47;99708.34;;;1.58;85.93
76605;BME280;73179;50.978;16.998;2023-11-19T08:31:13;99786.75;;;1.97;87.62
76605;BME280;73179;50.978;16.998;2023-11-19T08:33:39;99670.00;;;1.35;86.15
76605;BME280;73179;50.978;16.998;2023-11-19T08:36:05;99737.28;;;1.77;86.57
76605;BME280;73179;50.978;16.998;2023-11-19T08:38:32;99773.75;;;2.00;86.31
76605;BME280;73179;50.978;16.998;2023-11-19T08:40:58;99703.56;;;1.60;86.53
76605;BME280;73179;50.978;16.998;2023-11-19T08:43:26;99707.06;;;1.60;86.95
76605;BME280;73179;50.978;16.998;2023-11-19T08:45:52;99750.44;;;1.96;87.45
76605;BME280;73179;50.978;16.998;2023-11-19T08:48:18;99614.56;;;1.21;87.52
76605;BME280;73179;50.978;16.998;2023-11-19T08:50:44;99717.50;;;1.90;87.17
76605;BME280;73179;50.978;16.998;2023-11-19T08:53:10;99719.66;;;2.05;87.54
76605;BME280;73179;50.978;16.998;2023-11-19T08:55:37;99689.06;;;1.96;87.24
76605;BME280;73179;50.978;16.998;2023-11-19T08:58:03;99696.03;;;2.13;86.92
76605;BME280;73179;50.978;16.998;2023-11-19T09:00:29;99702.13;;;2.25;86.03
76605;BME280;73179;50.978;16.998;2023-11-19T09:02:55;99690.94;;;2.28;87.05
76605;BME280;73179;50.978;16.998;2023-11-19T09:05:22;99669.44;;;2.35;87.09
76605;BME280;73179;50.978;16.998;2023-11-19T09:07:47;99654.06;;;2.25;86.99
76605;BME280;73179;50.978;16.998;2023-11-19T09:10:15;99669.50;;;2.40;87.24
76605;BME280;73179;50.978;16.998;2023-11-19T09:12:41;99633.28;;;2.27;86.88
76605;BME280;73179;50.978;16.998;2023-11-19T09:15:08;99667.44;;;2.59;86.68
76605;BME280;73179;50.978;16.998;2023-11-19T09:17:36;99701.06;;;2.76;86.51
76605;BME280;73179;50.978;16.998;2023-11-19T09:20:02;99681.66;;;2.81;86.68
76605;BME280;73179;50.978;16.998;2023-11-19T09:22:28;99653.78;;;2.77;87.15
76605;BME280;73179;50.978;16.998;2023-11-19T09:24:54;99675.28;;;3.04;87.44
76605;BME280;73179;50.978;16.998;2023-11-19T09:27:20;99638.50;;;2.94;87.40
76605;BME280;73179;50.978;16.998;2023-11-19T09:29:46;99656.44;;;3.15;86.52
76605;BME280;73179;50.978;16.998;2023-11-19T09:32:15;99653.28;;;3.18;86.62
76605;BME280;73179;50.978;16.998;2023-11-19T09:34:41;99645.56;;;3.22;86.62
76605;BME280;73179;50.978;16.998;2023-11-19T09:37:07;99660.53;;;3.45;86.01
76605;BME280;73179;50.978;16.998;2023-11-19T09:39:33;99676.53;;;3.61;86.10
76605;BME280;73179;50.978;16.998;2023-11-19T09:41:59;99655.06;;;3.56;85.70
76605;BME280;73179;50.978;16.998;2023-11-19T09:44:26;99663.97;;;3.62;84.90
76605;BME280;73179;50.978;16.998;2023-11-19T09:46:53;99658.59;;;3.62;85.89
76605;BME280;73179;50.978;16.998;2023-11-19T09:49:21;99609.09;;;3.38;84.87
76605;BME280;73179;50.978;16.998;2023-11-19T09:51:49;99638.75;;;3.58;84.81
76605;BME280;73179;50.978;16.998;2023-11-19T09:54:15;99658.97;;;3.70;85.54
76605;BME280;73179;50.978;16.998;2023-11-19T09:56:41;99637.28;;;3.72;84.27
76605;BME280;73179;50.978;16.998;2023-11-19T09:59:08;99609.38;;;3.63;84.11
76605;BME280;73179;50.978;16.998;2023-11-19T10:01:37;99632.53;;;3.79;84.35
76605;BME280;73179;50.978;16.998;2023-11-19T10:04:05;99495.78;;;2.95;84.25
76605;BME280;73179;50.978;16.998;2023-11-19T10:06:32;99587.25;;;3.72;86.08
76605;BME280;73179;50.978;16.998;2023-11-19T10:08:58;99602.13;;;3.90;84.69
76605;BME280;73179;50.978;16.998;2023-11-19T10:11:25;99604.31;;;3.93;84.01
76605;BME280;73179;50.978;16.998;2023-11-19T10:13:53;99575.50;;;3.78;84.08
76605;BME280;73179;50.978;16.998;2023-11-19T10:16:19;99612.19;;;4.05;84.18
76605;BME280;73179;50.978;16.998;2023-11-19T10:18:46;99597.41;;;4.02;84.77
76605;BME280;73179;50.978;16.998;2023-11-19T10:21:13;99564.34;;;3.87;84.24
76605;BME280;73179;50.978;16.998;2023-11-19T10:23:50;99582.44;;;4.06;84.32
76605;BME280;73179;50.978;16.998;2023-11-19T10:26:18;99527.34;;;3.78;83.86
76605;BME280;73179;50.978;16.998;2023-11-19T10:28:48;99511.50;;;3.72;84.38
76605;BME280;73179;50.978;16.998;2023-11-19T10:31:15;99560.22;;;4.06;84.17
76605;BME280;73179;50.978;16.998;2023-11-19T10:33:41;99542.16;;;3.91;84.30
76605;BME280;73179;50.978;16.998;2023-11-19T10:36:09;99533.38;;;3.96;83.61
76605;BME280;73179;50.978;16.998;2023-11-19T10:38:35;99520.47;;;3.88;84.45
76605;BME280;73179;50.978;16.998;2023-11-19T10:41:02;99489.03;;;3.73;84.98
76605;BME280;73179;50.978;16.998;2023-11-19T10:43:28;99490.91;;;3.72;84.73
76605;BME280;73179;50.978;16.998;2023-11-19T10:45:54;99540.66;;;4.00;84.79
76605;BME280;73179;50.978;16.998;2023-11-19T10:48:20;99448.44;;;3.49;85.88
76605;BME280;73179;50.978;16.998;2023-11-19T10:50:53;99526.69;;;3.93;86.33
76605;BME280;73179;50.978;16.998;2023-11-19T10:53:21;99527.16;;;3.90;86.74
76605;BME280;73179;50.978;16.998;2023-11-19T10:55:49;99512.38;;;3.77;87.61
76605;BME280;73179;50.978;16.998;2023-11-19T10:58:16;99522.84;;;3.84;87.09
76605;BME280;73179;50.978;16.998;2023-11-19T11:00:48;99474.44;;;3.54;87.73
76605;BME280;73179;50.978;16.998;2023-11-19T11:03:19;99504.56;;;3.76;87.64
76605;BME280;73179;50.978;16.998;2023-11-19T11:05:49;99422.84;;;3.26;88.29
76605;BME280;73179;50.978;16.998;2023-11-19T11:08:17;99507.31;;;3.81;87.98
76605;BME280;73179;50.978;16.998;2023-11-19T11:10:53;99510.50;;;3.78;87.92
76605;BME280;73179;50.978;16.998;2023-11-19T11:13:23;99490.13;;;3.77;88.61
76605;BME280;73179;50.978;16.998;2023-11-19T11:15:56;99477.81;;;3.76;88.95
76605;BME280;73179;50.978;16.998;2023-11-19T11:18:24;99488.34;;;3.88;88.12
76605;BME280;73179;50.978;16.998;2023-11-19T11:20:59;99475.75;;;3.88;87.99
76605;BME280;73179;50.978;16.998;2023-11-19T11:26:22;99476.16;;;4.07;88.80
76605;BME280;73179;50.978;16.998;2023-11-19T11:29:14;99459.34;;;4.16;88.61
76605;BME280;73179;50.978;16.998;2023-11-19T11:37:23;99451.09;;;4.28;88.02
76605;BME280;73179;50.978;16.998;2023-11-19T11:39:51;99435.25;;;4.21;88.29
76605;BME280;73179;50.978;16.998;2023-11-19T11:50:15;99447.69;;;4.43;88.71
76605;BME280;73179;50.978;16.998;2023-11-19T11:53:13;99446.63;;;4.49;89.20
76605;BME280;73179;50.978;16.998;2023-11-19T11:58:25;99432.44;;;4.53;88.31
76605;BME280;73179;50.978;16.998;2023-11-19T12:00:52;99438.38;;;4.65;88.72
76605;BME280;73179;50.978;16.998;2023-11-19T12:03:21;99433.81;;;4.61;88.13
76605;BME280;73179;50.978;16.998;2023-11-19T12:05:49;99427.41;;;4.67;88.25
76605;BME280;73179;50.978;16.998;2023-11-19T12:08:18;99433.63;;;4.83;89.24
76605;BME280;73179;50.978;16.998;2023-11-19T12:10:50;99421.81;;;4.78;88.50
76605;BME280;73179;50.978;16.998;2023-11-19T12:13:17;99414.06;;;4.82;88.35
76605;BME280;73179;50.978;16.998;2023-11-19T12:18:26;99418.94;;;5.05;88.18
76605;BME280;73179;50.978;16.998;2023-11-19T12:20:52;99382.94;;;4.91;88.06
76605;BME280;73179;50.978;16.998;2023-11-19T12:23:18;99386.44;;;5.07;87.73
76605;BME280;73179;50.978;16.998;2023-11-19T12:25:44;99398.03;;;5.17;88.66
76605;BME280;73179;50.978;16.998;2023-11-19T12:28:14;99381.91;;;5.17;87.83
76605;BME280;73179;50.978;16.998;2023-11-19T12:30:44;99382.16;;;5.26;88.15
76605;BME280;73179;50.978;16.998;2023-11-19T12:33:10;99389.94;;;5.38;87.77
76605;BME280;73179;50.978;16.998;2023-11-19T12:35:44;99381.38;;;5.36;88.12
76605;BME280;73179;50.978;16.998;2023-11-19T12:38:24;99391.00;;;5.57;88.09
76605;BME280;73179;50.978;16.998;2023-11-19T12:41:09;99390.75;;;5.53;88.01
76605;BME280;73179;50.978;16.998;2023-11-19T12:43:39;99398.00;;;5.63;88.93
76605;BME280;73179;50.978;16.998;2023-11-19T12:46:19;99383.50;;;5.59;88.41
76605;BME280;73179;50.978;16.998;2023-11-19T12:48:47;99369.56;;;5.52;89.39
76605;BME280;73179;50.978;16.998;2023-11-19T12:51:13;99389.13;;;5.67;88.94
76605;BME280;73179;50.978;16.998;2023-11-19T12:53:49;99355.88;;;5.48;88.85
76605;BME280;73179;50.978;16.998;2023-11-19T12:56:16;99380.78;;;5.79;88.83
76605;BME280;73179;50.978;16.998;2023-11-19T12:58:42;99378.88;;;5.85;89.01
76605;BME280;73179;50.978;16.998;2023-11-19T13:01:09;99382.41;;;5.90;89.28
76605;BME280;73179;50.978;16.998;2023-11-19T13:03:38;99347.47;;;5.85;88.54
76605;BME280;73179;50.978;16.998;2023-11-19T13:06:09;99368.06;;;6.20;87.90
76605;BME280;73179;50.978;16.998;2023-11-19T13:08:49;99352.19;;;6.23;87.53
76605;BME280;73179;50.978;16.998;2023-11-19T13:11:34;99342.47;;;6.33;87.68
76605;BME280;73179;50.978;16.998;2023-11-19T13:14:03;99345.69;;;6.35;87.65
76605;BME280;73179;50.978;16.998;2023-11-19T13:16:37;99359.59;;;6.47;88.37
76605;BME280;73179;50.978;16.998;2023-11-19T13:19:04;99325.31;;;6.29;87.75
76605;BME280;73179;50.978;16.998;2023-11-19T13:21:31;99341.34;;;6.44;88.42